sensor_id;sensor_type;location;lat;lon;timestamp;P1;durP1;ratioP1;P2;durP2;ratioP2
15669;SDS011;18524;45.190;5.732;2023-04-15T00:03:28;3.67;;;3.23;;
15669;SDS011;18524;45.190;5.732;2023-04-15T00:08:19;3.97;;;3.50;;
15669;SDS011;18524;45.190;5.732;2023-04-15T00:13:10;4.37;;;3.97;;
15669;SDS011;18524;45.190;5.732;2023-04-15T00:18:01;5.10;;;4.53;;
15669;SDS011;18524;45.190;5.732;2023-04-15T00:22:51;4.53;;;4.13;;
15669;SDS011;18524;45.190;5.732;2023-04-15T00:27:42;4.47;;;3.90;;
15669;SDS011;18524;45.190;5.732;2023-04-15T00:32:32;4.60;;;4.17;;
15669;SDS011;18524;45.190;5.732;2023-04-15T00:37:23;4.47;;;4.07;;
15669;SDS011;18524;45.190;5.732;2023-04-15T00:42:13;5.03;;;4.53;;
15669;SDS011;18524;45.190;5.732;2023-04-15T00:47:04;4.33;;;3.93;;
15669;SDS011;18524;45.190;5.732;2023-04-15T00:51:55;4.00;;;3.60;;
15669;SDS011;18524;45.190;5.732;2023-04-15T00:56:46;4.80;;;3.10;;
15669;SDS011;18524;45.190;5.732;2023-04-15T01:01:36;3.30;;;3.00;;
15669;SDS011;18524;45.190;5.732;2023-04-15T01:06:27;3.93;;;3.23;;
15669;SDS011;18524;45.190;5.732;2023-04-15T01:11:18;4.43;;;3.80;;
15669;SDS011;18524;45.190;5.732;2023-04-15T01:16:09;5.00;;;3.77;;
15669;SDS011;18524;45.190;5.732;2023-04-15T01:21:01;4.23;;;3.30;;
15669;SDS011;18524;45.190;5.732;2023-04-15T01:25:52;4.77;;;3.60;;
15669;SDS011;18524;45.190;5.732;2023-04-15T01:30:43;4.30;;;3.77;;
15669;SDS011;18524;45.190;5.732;2023-04-15T01:35:33;5.50;;;3.60;;
15669;SDS011;18524;45.190;5.732;2023-04-15T01:40:24;3.70;;;3.40;;
15669;SDS011;18524;45.190;5.732;2023-04-15T01:45:14;6.10;;;4.50;;
15669;SDS011;18524;45.190;5.732;2023-04-15T01:50:05;4.40;;;4.00;;
15669;SDS011;18524;45.190;5.732;2023-04-15T01:54:56;5.87;;;4.50;;
15669;SDS011;18524;45.190;5.732;2023-04-15T01:59:46;5.70;;;4.73;;
15669;SDS011;18524;45.190;5.732;2023-04-15T02:04:37;5.43;;;4.80;;
15669;SDS011;18524;45.190;5.732;2023-04-15T02:09:27;4.70;;;4.20;;
15669;SDS011;18524;45.190;5.732;2023-04-15T02:14:17;4.40;;;3.13;;
15669;SDS011;18524;45.190;5.732;2023-04-15T02:19:08;4.07;;;3.67;;
15669;SDS011;18524;45.190;5.732;2023-04-15T02:23:58;3.90;;;3.27;;
15669;SDS011;18524;45.190;5.732;2023-04-15T02:28:48;3.37;;;3.07;;
15669;SDS011;18524;45.190;5.732;2023-04-15T02:33:40;4.23;;;3.83;;
15669;SDS011;18524;45.190;5.732;2023-04-15T02:38:30;3.33;;;3.03;;
15669;SDS011;18524;45.190;5.732;2023-04-15T02:43:21;3.33;;;3.03;;
15669;SDS011;18524;45.190;5.732;2023-04-15T02:48:11;3.13;;;2.33;;
15669;SDS011;18524;45.190;5.732;2023-04-15T02:53:02;3.93;;;3.63;;
15669;SDS011;18524;45.190;5.732;2023-04-15T02:57:52;4.10;;;3.80;;
15669;SDS011;18524;45.190;5.732;2023-04-15T03:02:43;3.80;;;3.40;;
15669;SDS011;18524;45.190;5.732;2023-04-15T03:07:33;4.03;;;2.60;;
15669;SDS011;18524;45.190;5.732;2023-04-15T03:12:23;3.93;;;2.87;;
15669;SDS011;18524;45.190;5.732;2023-04-15T03:17:14;2.73;;;2.53;;
15669;SDS011;18524;45.190;5.732;2023-04-15T03:22:04;2.20;;;1.90;;
15669;SDS011;18524;45.190;5.732;2023-04-15T03:26:55;1.20;;;1.00;;
15669;SDS011;18524;45.190;5.732;2023-04-15T03:31:46;2.20;;;1.10;;
15669;SDS011;18524;45.190;5.732;2023-04-15T03:36:37;1.70;;;1.60;;
15669;SDS011;18524;45.190;5.732;2023-04-15T03:41:27;2.10;;;1.87;;
15669;SDS011;18524;45.190;5.732;2023-04-15T03:46:17;2.10;;;1.90;;
15669;SDS011;18524;45.190;5.732;2023-04-15T03:51:08;2.50;;;1.87;;
15669;SDS011;18524;45.190;5.732;2023-04-15T03:55:58;3.50;;;1.70;;
15669;SDS011;18524;45.190;5.732;2023-04-15T04:00:49;3.30;;;1.50;;
15669;SDS011;18524;45.190;5.732;2023-04-15T04:05:39;1.93;;;1.70;;
15669;SDS011;18524;45.190;5.732;2023-04-15T04:10:30;2.40;;;2.03;;
15669;SDS011;18524;45.190;5.732;2023-04-15T04:15:20;2.60;;;2.33;;
15669;SDS011;18524;45.190;5.732;2023-04-15T04:20:11;2.83;;;1.97;;
15669;SDS011;18524;45.190;5.732;2023-04-15T04:25:01;2.07;;;1.97;;
15669;SDS011;18524;45.190;5.732;2023-04-15T04:29:52;2.50;;;2.30;;
15669;SDS011;18524;45.190;5.732;2023-04-15T04:34:42;3.10;;;1.90;;
15669;SDS011;18524;45.190;5.732;2023-04-15T04:39:32;2.67;;;2.20;;
15669;SDS011;18524;45.190;5.732;2023-04-15T04:44:23;2.40;;;2.20;;
15669;SDS011;18524;45.190;5.732;2023-04-15T04:49:13;3.37;;;2.40;;
15669;SDS011;18524;45.190;5.732;2023-04-15T04:54:03;2.60;;;2.40;;
15669;SDS011;18524;45.190;5.732;2023-04-15T04:58:54;3.13;;;2.40;;
15669;SDS011;18524;45.190;5.732;2023-04-15T05:03:44;3.30;;;2.30;;
15669;SDS011;18524;45.190;5.732;2023-04-15T05:08:35;2.60;;;2.40;;
15669;SDS011;18524;45.190;5.732;2023-04-15T05:13:25;3.10;;;2.30;;
15669;SDS011;18524;45.190;5.732;2023-04-15T05:18:16;2.50;;;2.30;;
15669;SDS011;18524;45.190;5.732;2023-04-15T05:23:06;3.30;;;2.63;;
15669;SDS011;18524;45.190;5.732;2023-04-15T05:27:57;4.57;;;4.17;;
15669;SDS011;18524;45.190;5.732;2023-04-15T05:32:47;4.53;;;4.13;;
15669;SDS011;18524;45.190;5.732;2023-04-15T05:37:37;3.50;;;3.20;;
15669;SDS011;18524;45.190;5.732;2023-04-15T05:42:28;3.73;;;3.37;;
15669;SDS011;18524;45.190;5.732;2023-04-15T05:47:18;4.47;;;4.07;;
15669;SDS011;18524;45.190;5.732;2023-04-15T05:52:08;12.67;;;10.50;;
15669;SDS011;18524;45.190;5.732;2023-04-15T05:56:59;4.17;;;3.77;;
15669;SDS011;18524;45.190;5.732;2023-04-15T06:01:49;6.10;;;4.07;;
15669;SDS011;18524;45.190;5.732;2023-04-15T06:06:41;3.80;;;3.10;;
15669;SDS011;18524;45.190;5.732;2023-04-15T06:11:31;3.87;;;3.53;;
15669;SDS011;18524;45.190;5.732;2023-04-15T06:16:22;4.27;;;3.20;;
15669;SDS011;18524;45.190;5.732;2023-04-15T06:21:12;3.90;;;3.60;;
15669;SDS011;18524;45.190;5.732;2023-04-15T06:26:02;2.93;;;2.67;;
15669;SDS011;18524;45.190;5.732;2023-04-15T06:30:53;3.20;;;2.90;;
15669;SDS011;18524;45.190;5.732;2023-04-15T06:35:43;4.87;;;4.37;;
15669;SDS011;18524;45.190;5.732;2023-04-15T06:40:34;3.57;;;3.00;;
15669;SDS011;18524;45.190;5.732;2023-04-15T06:45:24;3.23;;;2.93;;
15669;SDS011;18524;45.190;5.732;2023-04-15T06:50:15;2.50;;;2.30;;
15669;SDS011;18524;45.190;5.732;2023-04-15T06:55:06;2.50;;;2.20;;
15669;SDS011;18524;45.190;5.732;2023-04-15T06:59:56;2.90;;;2.27;;
15669;SDS011;18524;45.190;5.732;2023-04-15T07:04:47;2.53;;;2.33;;
15669;SDS011;18524;45.190;5.732;2023-04-15T07:09:39;3.40;;;2.57;;
15669;SDS011;18524;45.190;5.732;2023-04-15T07:14:29;2.80;;;2.60;;
15669;SDS011;18524;45.190;5.732;2023-04-15T07:19:19;3.10;;;2.80;;
15669;SDS011;18524;45.190;5.732;2023-04-15T07:24:10;2.80;;;2.00;;
15669;SDS011;18524;45.190;5.732;2023-04-15T07:29:01;4.70;;;2.53;;
15669;SDS011;18524;45.190;5.732;2023-04-15T07:33:51;29.83;;;27.03;;
15669;SDS011;18524;45.190;5.732;2023-04-15T07:38:42;17.03;;;15.53;;
15669;SDS011;18524;45.190;5.732;2023-04-15T07:43:32;11.47;;;10.37;;
15669;SDS011;18524;45.190;5.732;2023-04-15T07:48:23;4.27;;;3.87;;
15669;SDS011;18524;45.190;5.732;2023-04-15T07:53:13;1.67;;;1.40;;
15669;SDS011;18524;45.190;5.732;2023-04-15T07:58:04;1.13;;;0.50;;
15669;SDS011;18524;45.190;5.732;2023-04-15T08:02:55;1.43;;;0.50;;
15669;SDS011;18524;45.190;5.732;2023-04-15T08:07:46;1.73;;;0.80;;
15669;SDS011;18524;45.190;5.732;2023-04-15T08:12:36;2.63;;;0.90;;
15669;SDS011;18524;45.190;5.732;2023-04-15T08:17:27;0.97;;;0.43;;
15669;SDS011;18524;45.190;5.732;2023-04-15T08:22:17;2.77;;;1.13;;
15669;SDS011;18524;45.190;5.732;2023-04-15T08:27:08;1.10;;;0.50;;
15669;SDS011;18524;45.190;5.732;2023-04-15T08:31:59;1.20;;;0.60;;
15669;SDS011;18524;45.190;5.732;2023-04-15T08:36:53;2.00;;;0.40;;
15669;SDS011;18524;45.190;5.732;2023-04-15T08:41:47;1.80;;;1.10;;
15669;SDS011;18524;45.190;5.732;2023-04-15T08:46:42;2.77;;;1.60;;
15669;SDS011;18524;45.190;5.732;2023-04-15T08:51:33;1.77;;;0.97;;
15669;SDS011;18524;45.190;5.732;2023-04-15T08:56:24;1.30;;;0.90;;
15669;SDS011;18524;45.190;5.732;2023-04-15T09:01:15;2.13;;;0.50;;
15669;SDS011;18524;45.190;5.732;2023-04-15T09:06:06;0.90;;;0.50;;
15669;SDS011;18524;45.190;5.732;2023-04-15T09:10:57;1.83;;;0.80;;
15669;SDS011;18524;45.190;5.732;2023-04-15T09:15:48;1.20;;;0.67;;
15669;SDS011;18524;45.190;5.732;2023-04-15T09:20:39;2.37;;;1.40;;
15669;SDS011;18524;45.190;5.732;2023-04-15T09:25:33;3.73;;;2.50;;
15669;SDS011;18524;45.190;5.732;2023-04-15T09:30:23;2.90;;;1.70;;
15669;SDS011;18524;45.190;5.732;2023-04-15T09:35:14;1.67;;;0.60;;
15669;SDS011;18524;45.190;5.732;2023-04-15T09:40:05;0.60;;;0.50;;
15669;SDS011;18524;45.190;5.732;2023-04-15T09:44:55;0.60;;;0.50;;
15669;SDS011;18524;45.190;5.732;2023-04-15T09:49:58;2.00;;;0.50;;
15669;SDS011;18524;45.190;5.732;2023-04-15T09:54:50;0.83;;;0.50;;
15669;SDS011;18524;45.190;5.732;2023-04-15T09:59:43;1.57;;;0.90;;
15669;SDS011;18524;45.190;5.732;2023-04-15T10:04:34;1.40;;;0.80;;
15669;SDS011;18524;45.190;5.732;2023-04-15T10:09:29;2.60;;;0.80;;
15669;SDS011;18524;45.190;5.732;2023-04-15T10:14:20;1.10;;;1.00;;
15669;SDS011;18524;45.190;5.732;2023-04-15T10:19:11;1.07;;;0.77;;
15669;SDS011;18524;45.190;5.732;2023-04-15T10:24:02;0.53;;;0.40;;
15669;SDS011;18524;45.190;5.732;2023-04-15T10:28:52;1.30;;;0.60;;
15669;SDS011;18524;45.190;5.732;2023-04-15T10:33:43;2.00;;;0.60;;
15669;SDS011;18524;45.190;5.732;2023-04-15T10:38:37;0.70;;;0.23;;
15669;SDS011;18524;45.190;5.732;2023-04-15T10:43:30;1.30;;;0.40;;
15669;SDS011;18524;45.190;5.732;2023-04-15T10:48:21;1.70;;;0.90;;
15669;SDS011;18524;45.190;5.732;2023-04-15T10:53:11;1.93;;;0.80;;
15669;SDS011;18524;45.190;5.732;2023-04-15T10:58:02;0.90;;;0.60;;
15669;SDS011;18524;45.190;5.732;2023-04-15T11:07:56;0.77;;;0.60;;
15669;SDS011;18524;45.190;5.732;2023-04-15T11:12:49;1.20;;;0.60;;
15669;SDS011;18524;45.190;5.732;2023-04-15T11:18:16;2.23;;;1.20;;
15669;SDS011;18524;45.190;5.732;2023-04-15T11:23:11;1.40;;;0.80;;
15669;SDS011;18524;45.190;5.732;2023-04-15T11:28:02;2.80;;;1.17;;
15669;SDS011;18524;45.190;5.732;2023-04-15T11:32:54;2.50;;;1.37;;
15669;SDS011;18524;45.190;5.732;2023-04-15T11:37:48;2.13;;;0.80;;
15669;SDS011;18524;45.190;5.732;2023-04-15T11:42:39;4.60;;;0.77;;
15669;SDS011;18524;45.190;5.732;2023-04-15T11:47:30;1.60;;;1.10;;
15669;SDS011;18524;45.190;5.732;2023-04-15T11:52:20;2.90;;;1.20;;
15669;SDS011;18524;45.190;5.732;2023-04-15T11:57:10;1.50;;;0.80;;
15669;SDS011;18524;45.190;5.732;2023-04-15T12:02:09;1.77;;;0.90;;
15669;SDS011;18524;45.190;5.732;2023-04-15T12:07:03;0.70;;;0.30;;
15669;SDS011;18524;45.190;5.732;2023-04-15T12:11:56;2.00;;;1.00;;
15669;SDS011;18524;45.190;5.732;2023-04-15T12:16:48;0.87;;;0.43;;
15669;SDS011;18524;45.190;5.732;2023-04-15T12:21:40;0.60;;;0.37;;
15669;SDS011;18524;45.190;5.732;2023-04-15T12:26:55;1.07;;;0.40;;
15669;SDS011;18524;45.190;5.732;2023-04-15T12:31:51;0.90;;;0.73;;
15669;SDS011;18524;45.190;5.732;2023-04-15T12:36:43;0.60;;;0.47;;
15669;SDS011;18524;45.190;5.732;2023-04-15T12:41:33;1.73;;;0.70;;
15669;SDS011;18524;45.190;5.732;2023-04-15T12:46:24;0.20;;;0.20;;
15669;SDS011;18524;45.190;5.732;2023-04-15T12:51:14;1.17;;;0.40;;
15669;SDS011;18524;45.190;5.732;2023-04-15T12:56:05;0.73;;;0.50;;
15669;SDS011;18524;45.190;5.732;2023-04-15T13:00:56;0.70;;;0.40;;
15669;SDS011;18524;45.190;5.732;2023-04-15T13:05:46;2.10;;;0.40;;
15669;SDS011;18524;45.190;5.732;2023-04-15T13:10:36;0.53;;;0.30;;
15669;SDS011;18524;45.190;5.732;2023-04-15T13:15:27;1.67;;;0.40;;
15669;SDS011;18524;45.190;5.732;2023-04-15T13:20:18;0.33;;;0.30;;
15669;SDS011;18524;45.190;5.732;2023-04-15T13:25:08;0.80;;;0.30;;
15669;SDS011;18524;45.190;5.732;2023-04-15T13:29:59;0.37;;;0.30;;
15669;SDS011;18524;45.190;5.732;2023-04-15T13:34:50;1.37;;;0.60;;
15669;SDS011;18524;45.190;5.732;2023-04-15T13:39:40;1.20;;;0.43;;
15669;SDS011;18524;45.190;5.732;2023-04-15T13:44:31;1.40;;;0.50;;
15669;SDS011;18524;45.190;5.732;2023-04-15T13:49:21;0.40;;;0.30;;
15669;SDS011;18524;45.190;5.732;2023-04-15T13:54:11;0.37;;;0.30;;
15669;SDS011;18524;45.190;5.732;2023-04-15T13:59:02;0.70;;;0.40;;
15669;SDS011;18524;45.190;5.732;2023-04-15T14:03:52;0.80;;;0.50;;
15669;SDS011;18524;45.190;5.732;2023-04-15T14:08:43;0.87;;;0.50;;
15669;SDS011;18524;45.190;5.732;2023-04-15T14:13:33;3.00;;;0.90;;
15669;SDS011;18524;45.190;5.732;2023-04-15T14:18:24;0.60;;;0.60;;
15669;SDS011;18524;45.190;5.732;2023-04-15T14:23:14;0.70;;;0.40;;
15669;SDS011;18524;45.190;5.732;2023-04-15T14:28:05;0.97;;;0.37;;
15669;SDS011;18524;45.190;5.732;2023-04-15T14:32:55;0.60;;;0.40;;
15669;SDS011;18524;45.190;5.732;2023-04-15T14:37:46;1.53;;;0.60;;
15669;SDS011;18524;45.190;5.732;2023-04-15T14:42:36;2.40;;;0.43;;
15669;SDS011;18524;45.190;5.732;2023-04-15T14:47:26;0.70;;;0.43;;
15669;SDS011;18524;45.190;5.732;2023-04-15T14:52:17;0.90;;;0.50;;
15669;SDS011;18524;45.190;5.732;2023-04-15T14:57:07;0.70;;;0.37;;
15669;SDS011;18524;45.190;5.732;2023-04-15T15:01:58;1.40;;;0.80;;
15669;SDS011;18524;45.190;5.732;2023-04-15T15:06:48;0.70;;;0.50;;
15669;SDS011;18524;45.190;5.732;2023-04-15T15:11:38;0.90;;;0.63;;
15669;SDS011;18524;45.190;5.732;2023-04-15T15:16:29;1.67;;;0.80;;
15669;SDS011;18524;45.190;5.732;2023-04-15T15:21:20;0.90;;;0.60;;
15669;SDS011;18524;45.190;5.732;2023-04-15T15:26:10;0.87;;;0.70;;
15669;SDS011;18524;45.190;5.732;2023-04-15T15:31:01;0.90;;;0.60;;
15669;SDS011;18524;45.190;5.732;2023-04-15T15:35:51;0.53;;;0.53;;
15669;SDS011;18524;45.190;5.732;2023-04-15T15:40:42;0.70;;;0.37;;
15669;SDS011;18524;45.190;5.732;2023-04-15T15:45:32;0.60;;;0.60;;
15669;SDS011;18524;45.190;5.732;2023-04-15T15:50:23;1.07;;;0.60;;
15669;SDS011;18524;45.190;5.732;2023-04-15T15:55:14;0.73;;;0.57;;
15669;SDS011;18524;45.190;5.732;2023-04-15T16:00:05;1.20;;;0.77;;
15669;SDS011;18524;45.190;5.732;2023-04-15T16:04:56;0.90;;;0.57;;
15669;SDS011;18524;45.190;5.732;2023-04-15T16:09:47;1.10;;;0.70;;
15669;SDS011;18524;45.190;5.732;2023-04-15T16:14:37;1.47;;;1.10;;
15669;SDS011;18524;45.190;5.732;2023-04-15T16:19:28;1.97;;;0.80;;
15669;SDS011;18524;45.190;5.732;2023-04-15T16:24:18;1.00;;;0.73;;
15669;SDS011;18524;45.190;5.732;2023-04-15T16:29:09;1.03;;;0.70;;
15669;SDS011;18524;45.190;5.732;2023-04-15T16:33:59;1.07;;;0.77;;
15669;SDS011;18524;45.190;5.732;2023-04-15T16:38:49;1.47;;;0.90;;
15669;SDS011;18524;45.190;5.732;2023-04-15T16:43:40;0.97;;;0.87;;
15669;SDS011;18524;45.190;5.732;2023-04-15T16:48:30;0.63;;;0.63;;
15669;SDS011;18524;45.190;5.732;2023-04-15T16:53:21;0.70;;;0.53;;
15669;SDS011;18524;45.190;5.732;2023-04-15T16:58:11;1.13;;;0.87;;
15669;SDS011;18524;45.190;5.732;2023-04-15T17:03:02;0.90;;;0.80;;
15669;SDS011;18524;45.190;5.732;2023-04-15T17:07:52;1.17;;;1.07;;
15669;SDS011;18524;45.190;5.732;2023-04-15T17:12:42;1.40;;;1.00;;
15669;SDS011;18524;45.190;5.732;2023-04-15T17:17:33;1.60;;;1.43;;
15669;SDS011;18524;45.190;5.732;2023-04-15T17:22:23;1.83;;;1.30;;
15669;SDS011;18524;45.190;5.732;2023-04-15T17:27:14;2.07;;;1.70;;
15669;SDS011;18524;45.190;5.732;2023-04-15T17:32:04;2.17;;;1.57;;
15669;SDS011;18524;45.190;5.732;2023-04-15T17:36:55;2.07;;;1.60;;
15669;SDS011;18524;45.190;5.732;2023-04-15T17:41:45;1.70;;;1.60;;
15669;SDS011;18524;45.190;5.732;2023-04-15T17:46:36;2.97;;;2.10;;
15669;SDS011;18524;45.190;5.732;2023-04-15T17:51:26;2.20;;;1.50;;
15669;SDS011;18524;45.190;5.732;2023-04-15T17:56:17;4.93;;;3.13;;
15669;SDS011;18524;45.190;5.732;2023-04-15T18:01:07;1.70;;;1.60;;
15669;SDS011;18524;45.190;5.732;2023-04-15T18:05:57;1.67;;;1.53;;
15669;SDS011;18524;45.190;5.732;2023-04-15T18:10:49;1.73;;;1.47;;
15669;SDS011;18524;45.190;5.732;2023-04-15T18:15:40;2.70;;;1.60;;
15669;SDS011;18524;45.190;5.732;2023-04-15T18:20:30;3.07;;;2.10;;
15669;SDS011;18524;45.190;5.732;2023-04-15T18:25:22;1.53;;;1.40;;
15669;SDS011;18524;45.190;5.732;2023-04-15T18:30:12;2.87;;;1.80;;
15669;SDS011;18524;45.190;5.732;2023-04-15T18:35:03;2.80;;;2.20;;
15669;SDS011;18524;45.190;5.732;2023-04-15T18:39:54;3.87;;;2.53;;
15669;SDS011;18524;45.190;5.732;2023-04-15T18:44:45;3.47;;;3.17;;
15669;SDS011;18524;45.190;5.732;2023-04-15T18:49:35;7.03;;;5.43;;
15669;SDS011;18524;45.190;5.732;2023-04-15T18:54:25;2.50;;;2.30;;
15669;SDS011;18524;45.190;5.732;2023-04-15T18:59:16;2.53;;;2.33;;
15669;SDS011;18524;45.190;5.732;2023-04-15T19:04:06;2.20;;;2.00;;
15669;SDS011;18524;45.190;5.732;2023-04-15T19:08:57;2.30;;;2.10;;
15669;SDS011;18524;45.190;5.732;2023-04-15T19:13:47;3.20;;;2.90;;
15669;SDS011;18524;45.190;5.732;2023-04-15T19:18:38;2.47;;;2.27;;
15669;SDS011;18524;45.190;5.732;2023-04-15T19:23:29;11.03;;;9.93;;
15669;SDS011;18524;45.190;5.732;2023-04-15T19:28:20;16.60;;;14.07;;
15669;SDS011;18524;45.190;5.732;2023-04-15T19:33:10;5.10;;;4.60;;
15669;SDS011;18524;45.190;5.732;2023-04-15T19:38:01;2.90;;;2.70;;
15669;SDS011;18524;45.190;5.732;2023-04-15T19:42:52;5.10;;;3.03;;
15669;SDS011;18524;45.190;5.732;2023-04-15T19:47:42;8.30;;;4.60;;
15669;SDS011;18524;45.190;5.732;2023-04-15T19:52:33;4.43;;;4.03;;
15669;SDS011;18524;45.190;5.732;2023-04-15T19:57:23;3.87;;;3.47;;
15669;SDS011;18524;45.190;5.732;2023-04-15T20:02:13;7.73;;;6.30;;
15669;SDS011;18524;45.190;5.732;2023-04-15T20:07:04;5.10;;;4.60;;
15669;SDS011;18524;45.190;5.732;2023-04-15T20:11:54;6.20;;;5.60;;
15669;SDS011;18524;45.190;5.732;2023-04-15T20:16:45;6.03;;;5.10;;
15669;SDS011;18524;45.190;5.732;2023-04-15T20:21:36;6.83;;;6.13;;
15669;SDS011;18524;45.190;5.732;2023-04-15T20:26:26;7.47;;;6.77;;
15669;SDS011;18524;45.190;5.732;2023-04-15T20:31:17;8.10;;;6.77;;
15669;SDS011;18524;45.190;5.732;2023-04-15T20:36:07;7.43;;;6.60;;
15669;SDS011;18524;45.190;5.732;2023-04-15T20:40:57;6.50;;;5.90;;
15669;SDS011;18524;45.190;5.732;2023-04-15T20:45:48;6.27;;;5.73;;
15669;SDS011;18524;45.190;5.732;2023-04-15T20:50:39;6.73;;;6.10;;
15669;SDS011;18524;45.190;5.732;2023-04-15T20:55:29;7.30;;;6.33;;
15669;SDS011;18524;45.190;5.732;2023-04-15T21:00:20;6.60;;;6.00;;
15669;SDS011;18524;45.190;5.732;2023-04-15T21:05:10;6.23;;;5.63;;
15669;SDS011;18524;45.190;5.732;2023-04-15T21:10:01;3.87;;;3.40;;
15669;SDS011;18524;45.190;5.732;2023-04-15T21:14:51;3.87;;;3.57;;
15669;SDS011;18524;45.190;5.732;2023-04-15T21:19:41;6.63;;;6.03;;
15669;SDS011;18524;45.190;5.732;2023-04-15T21:24:32;6.30;;;5.70;;
15669;SDS011;18524;45.190;5.732;2023-04-15T21:29:22;6.57;;;5.97;;
15669;SDS011;18524;45.190;5.732;2023-04-15T21:34:13;7.00;;;6.40;;
15669;SDS011;18524;45.190;5.732;2023-04-15T21:39:03;6.63;;;6.03;;
15669;SDS011;18524;45.190;5.732;2023-04-15T21:43:54;7.80;;;7.00;;
15669;SDS011;18524;45.190;5.732;2023-04-15T21:48:45;7.77;;;6.97;;
15669;SDS011;18524;45.190;5.732;2023-04-15T21:53:35;7.30;;;6.60;;
15669;SDS011;18524;45.190;5.732;2023-04-15T21:58:26;7.63;;;6.83;;
15669;SDS011;18524;45.190;5.732;2023-04-15T22:03:16;7.93;;;7.23;;
15669;SDS011;18524;45.190;5.732;2023-04-15T22:08:06;9.93;;;9.00;;
15669;SDS011;18524;45.190;5.732;2023-04-15T22:12:57;6.60;;;6.00;;
15669;SDS011;18524;45.190;5.732;2023-04-15T22:17:51;4.43;;;4.03;;
15669;SDS011;18524;45.190;5.732;2023-04-15T22:22:41;4.50;;;4.10;;
15669;SDS011;18524;45.190;5.732;2023-04-15T22:27:32;4.17;;;3.80;;
15669;SDS011;18524;45.190;5.732;2023-04-15T22:32:22;4.67;;;4.20;;
15669;SDS011;18524;45.190;5.732;2023-04-15T22:37:12;4.30;;;4.00;;
15669;SDS011;18524;45.190;5.732;2023-04-15T22:42:03;4.77;;;4.37;;
15669;SDS011;18524;45.190;5.732;2023-04-15T22:46:53;6.53;;;5.13;;
15669;SDS011;18524;45.190;5.732;2023-04-15T22:51:44;5.03;;;4.63;;
15669;SDS011;18524;45.190;5.732;2023-04-15T22:56:34;5.50;;;5.00;;
15669;SDS011;18524;45.190;5.732;2023-04-15T23:01:24;6.40;;;5.83;;
15669;SDS011;18524;45.190;5.732;2023-04-15T23:06:15;5.70;;;5.20;;
15669;SDS011;18524;45.190;5.732;2023-04-15T23:11:06;6.10;;;5.57;;
15669;SDS011;18524;45.190;5.732;2023-04-15T23:15:57;5.80;;;5.30;;
15669;SDS011;18524;45.190;5.732;2023-04-15T23:20:47;5.90;;;5.30;;
15669;SDS011;18524;45.190;5.732;2023-04-15T23:25:37;6.00;;;5.50;;
15669;SDS011;18524;45.190;5.732;2023-04-15T23:30:28;6.13;;;5.53;;
15669;SDS011;18524;45.190;5.732;2023-04-15T23:35:19;6.03;;;5.53;;
15669;SDS011;18524;45.190;5.732;2023-04-15T23:40:09;5.70;;;4.90;;
15669;SDS011;18524;45.190;5.732;2023-04-15T23:45:00;6.10;;;5.50;;
15669;SDS011;18524;45.190;5.732;2023-04-15T23:49:51;5.33;;;4.83;;
15669;SDS011;18524;45.190;5.732;2023-04-15T23:54:41;4.93;;;4.47;;
15669;SDS011;18524;45.190;5.732;2023-04-15T23:59:32;4.73;;;4.33;;
